Time;durP1;ratioP1;P1;durP2;ratioP2;P2;SDS_P1;SDS_P2;PMS_P1;PMS_P2;Temp;Humidity;BMP_temperature;BMP_pressure;BME280_temperature;BME280_humidity;BME280_pressure;Samples;Min_cycle;Max_cycle;Signal;HPM_P1;HPM_P2
2024/01/21 00:01:55;;;;;;;5.37;2.73;;;;;;;-0.30;51.45;101950.03;5033091;28;20892;-81
2024/01/21 00:04:22;;;;;;;5.03;3.40;;;;;;;-0.29;51.82;101950.03;5029371;28;20221;-81
2024/01/21 00:06:48;;;;;;;7.50;3.27;;;;;;;-0.30;52.00;101947.41;5026475;28;20923;-81
2024/01/21 00:09:15;;;;;;;4.97;3.23;;;;;;;-0.35;52.36;101947.38;5035278;28;20650;-82
2024/01/21 00:11:41;;;;;;;6.33;3.50;;;;;;;-0.33;52.93;101936.91;5032789;28;20198;-81
2024/01/21 00:14:08;;;;;;;4.17;2.70;;;;;;;-0.33;52.34;101934.31;5034349;28;20206;-81
2024/01/21 00:16:34;;;;;;;6.60;3.20;;;;;;;-0.33;52.44;101934.31;5028820;28;20199;-81
2024/01/21 00:19:02;;;;;;;5.47;3.23;;;;;;;-0.33;52.46;101926.44;5027801;28;20198;-81
2024/01/21 00:21:29;;;;;;;4.67;3.17;;;;;;;-0.33;52.14;101918.59;5035420;28;20222;-81
2024/01/21 00:23:55;;;;;;;3.27;2.40;;;;;;;-0.33;52.07;101919.47;5032363;28;20198;-81
2024/01/21 00:26:22;;;;;;;4.70;2.97;;;;;;;-0.33;51.88;101924.69;5029922;28;20601;-81
2024/01/21 00:28:48;;;;;;;4.67;3.43;;;;;;;-0.32;52.46;101918.59;5024836;28;20228;-81
2024/01/21 00:31:15;;;;;;;4.47;3.67;;;;;;;-0.33;51.59;101922.09;5034618;28;20237;-81
2024/01/21 00:33:41;;;;;;;5.30;3.33;;;;;;;-0.37;51.97;101908.16;5035227;28;20203;-81
2024/01/21 00:36:11;;;;;;;3.47;2.37;;;;;;;-0.33;51.48;101916.84;5032459;28;20690;-81
2024/01/21 00:38:38;;;;;;;4.10;2.83;;;;;;;-0.32;51.81;101905.50;5027622;28;20209;-81
2024/01/21 00:41:05;;;;;;;4.57;2.37;;;;;;;-0.30;51.53;101911.63;5035462;28;20232;-81
2024/01/21 00:43:32;;;;;;;5.53;2.50;;;;;;;-0.31;51.28;101904.66;5032647;28;20210;-81
2024/01/21 00:45:58;;;;;;;5.00;2.80;;;;;;;-0.30;50.83;101900.28;5028089;28;20228;-81
2024/01/21 00:48:25;;;;;;;4.27;2.37;;;;;;;-0.26;49.89;101892.44;5031517;28;20218;-81
2024/01/21 00:50:51;;;;;;;3.67;2.57;;;;;;;-0.25;49.68;101903.78;5030472;28;20226;-81
2024/01/21 00:53:19;;;;;;;4.00;2.73;;;;;;;-0.22;49.83;101899.44;5025079;28;20207;-81
2024/01/21 00:55:46;;;;;;;5.20;2.73;;;;;;;-0.16;48.88;101896.78;5030050;28;20605;-82
2024/01/21 00:58:12;;;;;;;4.93;2.67;;;;;;;-0.14;49.17;101891.56;5029457;28;20588;-81
2024/01/21 01:00:38;;;;;;;3.07;2.33;;;;;;;-0.12;49.07;101885.47;5027773;28;20590;-81
2024/01/21 01:03:05;;;;;;;5.07;2.50;;;;;;;-0.11;48.89;101883.72;5025793;28;20919;-81
2024/01/21 01:05:32;;;;;;;3.87;2.33;;;;;;;-0.11;49.01;101887.22;5030494;28;20240;-80
2024/01/21 01:07:58;;;;;;;3.63;2.63;;;;;;;-0.08;48.35;101879.34;5028758;28;20730;-81
2024/01/21 01:10:26;;;;;;;3.57;2.60;;;;;;;-0.07;48.68;101872.38;5030788;28;20245;-81
2024/01/21 01:12:53;;;;;;;4.27;1.93;;;;;;;-0.07;48.48;101881.09;5025201;28;20206;-81
2024/01/21 01:15:19;;;;;;;3.87;2.30;;;;;;;-0.08;48.58;101874.13;5027861;28;20202;-81
2024/01/21 01:17:47;;;;;;;4.30;2.47;;;;;;;-0.08;48.47;101866.25;5028469;28;20206;-81
2024/01/21 01:20:14;;;;;;;3.47;1.87;;;;;;;-0.08;48.35;101866.25;5023954;28;20681;-81
2024/01/21 01:22:41;;;;;;;4.57;2.00;;;;;;;-0.07;48.39;101854.03;5033748;28;20202;-81
2024/01/21 01:25:08;;;;;;;3.73;2.30;;;;;;;-0.09;48.39;101848.81;5027353;28;20241;-81
2024/01/21 01:27:36;;;;;;;4.50;2.50;;;;;;;-0.09;48.71;101853.16;5026548;28;20823;-81
2024/01/21 01:30:03;;;;;;;4.80;2.10;;;;;;;-0.10;48.77;101854.91;5029663;28;20733;-82
2024/01/21 01:32:29;;;;;;;7.53;2.30;;;;;;;-0.07;49.74;101865.41;5029725;28;20213;-81
2024/01/21 01:34:55;;;;;;;3.50;2.43;;;;;;;-0.11;49.97;101855.78;5032533;28;20865;-80
2024/01/21 01:37:22;;;;;;;4.70;2.40;;;;;;;-0.16;49.83;101857.53;5037469;28;20213;-79
2024/01/21 01:39:48;;;;;;;4.80;2.40;;;;;;;-0.21;49.94;101845.31;5029717;28;20225;-79
2024/01/21 01:42:15;;;;;;;3.30;2.07;;;;;;;-0.28;49.90;101857.53;5031081;28;20782;-79
2024/01/21 01:44:43;;;;;;;4.50;2.10;;;;;;;-0.28;49.98;101856.66;5027936;28;20217;-79
2024/01/21 01:47:10;;;;;;;3.23;2.20;;;;;;;-0.29;50.49;101855.78;5029663;28;20218;-79
2024/01/21 01:49:38;;;;;;;4.30;2.57;;;;;;;-0.30;50.88;101847.94;5034631;28;20217;-79
2024/01/21 01:52:05;;;;;;;2.47;2.07;;;;;;;-0.35;50.80;101842.69;5024661;28;20211;-79
2024/01/21 01:54:34;;;;;;;3.33;2.50;;;;;;;-0.38;51.06;101837.47;5033682;28;20202;-80
2024/01/21 01:57:02;;;;;;;3.80;2.70;;;;;;;-0.44;51.58;101827.88;5027783;28;20209;-80
2024/01/21 01:59:30;;;;;;;5.13;2.40;;;;;;;-0.44;51.71;101834.84;5028991;28;20238;-79
2024/01/21 02:01:58;;;;;;;4.93;2.90;;;;;;;-0.53;52.36;101829.59;5026029;28;20203;-80
2024/01/21 02:04:25;;;;;;;3.67;2.40;;;;;;;-0.56;52.50;101820.03;5037439;28;20212;-80
2024/01/21 02:06:52;;;;;;;4.70;2.50;;;;;;;-0.60;52.61;101823.50;5029853;28;20218;-80
2024/01/21 02:09:19;;;;;;;4.00;2.40;;;;;;;-0.64;52.84;101826.09;5030410;28;20676;-81
2024/01/21 02:11:45;;;;;;;4.43;2.70;;;;;;;-0.72;53.65;101829.56;5030788;28;20229;-79
2024/01/21 02:14:12;;;;;;;4.50;2.80;;;;;;;-0.75;53.77;101829.59;5031153;28;20294;-79
2024/01/21 02:16:39;;;;;;;4.83;2.90;;;;;;;-0.76;53.11;101822.59;5033428;28;20202;-80
2024/01/21 02:19:12;;;;;;;5.30;2.87;;;;;;;-0.79;53.65;101827.81;5029354;28;20309;-80
2024/01/21 02:21:38;;;;;;;3.70;2.63;;;;;;;-0.85;53.00;101827.81;5034844;28;20237;-80
2024/01/21 02:24:06;;;;;;;5.80;2.70;;;;;;;-0.87;52.89;101826.06;5030599;28;20206;-81
2024/01/21 02:26:33;;;;;;;4.63;2.30;;;;;;;-0.83;51.67;101826.06;5030642;28;20229;-81
2024/01/21 02:28:59;;;;;;;5.23;2.27;;;;;;;-0.83;51.19;101820.84;5031657;28;20206;-81
2024/01/21 02:31:26;;;;;;;3.63;2.43;;;;;;;-0.80;51.04;101810.38;5032461;28;20238;-81
2024/01/21 02:33:52;;;;;;;3.67;2.03;;;;;;;-0.80;50.40;101807.78;5035232;28;20215;-81
2024/01/21 02:36:19;;;;;;;3.43;2.33;;;;;;;-0.77;50.04;101812.13;5031729;28;20229;-81
2024/01/21 02:38:45;;;;;;;2.23;1.80;;;;;;;-0.78;50.25;101810.38;5025044;28;20214;-81
2024/01/21 02:41:13;;;;;;;4.10;2.43;;;;;;;-0.78;51.03;101807.78;5025127;28;20603;-81
2024/01/21 02:43:40;;;;;;;3.87;2.53;;;;;;;-0.82;51.66;101812.13;5034136;28;20206;-81
2024/01/21 02:46:06;;;;;;;3.90;2.33;;;;;;;-0.75;51.53;101810.41;5026618;28;20225;-81
2024/01/21 02:48:33;;;;;;;4.73;2.17;;;;;;;-0.84;51.92;101798.16;5032048;28;20206;-81
2024/01/21 02:50:59;;;;;;;3.23;2.20;;;;;;;-0.86;51.74;101793.78;5031574;28;20229;-81
2024/01/21 02:53:25;;;;;;;3.23;2.13;;;;;;;-0.86;50.83;101786.81;5033067;28;20214;-81
2024/01/21 02:55:51;;;;;;;3.87;2.30;;;;;;;-0.87;49.73;101786.81;5022165;28;20203;-81
2024/01/21 02:58:19;;;;;;;3.30;2.13;;;;;;;-0.83;48.86;101788.56;5029957;28;20221;-81
2024/01/21 03:00:46;;;;;;;4.23;2.37;;;;;;;-0.74;48.27;101780.75;5031495;28;20614;-81
2024/01/21 03:03:12;;;;;;;2.50;1.73;;;;;;;-0.68;47.91;101777.25;5032403;28;20232;-81
2024/01/21 03:05:39;;;;;;;2.83;2.17;;;;;;;-0.58;47.32;101773.78;5029625;28;20233;-81
2024/01/21 03:08:06;;;;;;;2.77;2.23;;;;;;;-0.49;47.27;101777.25;5031985;28;20618;-81
2024/01/21 03:10:32;;;;;;;4.90;3.03;;;;;;;-0.43;46.59;101769.41;5025578;28;20219;-81
2024/01/21 03:13:00;;;;;;;3.73;2.63;;;;;;;-0.39;46.56;101749.34;5028670;28;20583;-81
2024/01/21 03:15:28;;;;;;;3.10;2.13;;;;;;;-0.36;46.39;101752.81;5032527;28;20199;-81
2024/01/21 03:17:54;;;;;;;4.33;2.60;;;;;;;-0.30;46.39;101749.34;5030649;28;20216;-81
2024/01/21 03:20:21;;;;;;;4.07;2.77;;;;;;;-0.27;46.57;101748.47;5033397;28;20325;-81
2024/01/21 03:22:47;;;;;;;2.80;1.97;;;;;;;-0.25;46.97;101751.94;5032201;28;20611;-81
2024/01/21 03:25:14;;;;;;;4.37;2.20;;;;;;;-0.24;47.19;101754.56;5024669;28;20289;-81
2024/01/21 03:27:40;;;;;;;4.03;2.50;;;;;;;-0.22;47.81;101747.59;5033169;28;20217;-81
2024/01/21 03:30:08;;;;;;;4.40;2.60;;;;;;;-0.22;48.25;101734.50;5030245;28;20233;-81
2024/01/21 03:32:36;;;;;;;3.03;2.40;;;;;;;-0.23;48.67;101730.13;5031375;28;20222;-81
2024/01/21 03:35:02;;;;;;;4.33;2.90;;;;;;;-0.25;48.96;101729.25;5037357;28;20229;-81
2024/01/21 03:37:28;;;;;;;4.63;2.70;;;;;;;-0.31;49.49;101723.16;5027631;28;20199;-81
2024/01/21 03:39:55;;;;;;;4.37;3.10;;;;;;;-0.35;49.70;101715.31;5026427;28;21073;-81
2024/01/21 03:42:21;;;;;;;3.60;2.53;;;;;;;-0.39;49.75;101691.78;5032466;28;20240;-81
2024/01/21 03:44:49;;;;;;;5.43;2.83;;;;;;;-0.41;49.94;101696.16;5032163;28;20206;-81
2024/01/21 03:47:16;;;;;;;4.53;2.97;;;;;;;-0.43;49.67;101692.66;5029580;28;20234;-81
2024/01/21 03:49:43;;;;;;;6.03;2.83;;;;;;;-0.45;49.70;101687.41;5031878;28;20218;-81
2024/01/21 03:52:10;;;;;;;5.80;2.70;;;;;;;-0.53;49.78;101689.16;5030999;28;20228;-81
2024/01/21 03:54:36;;;;;;;3.77;2.50;;;;;;;-0.54;50.06;101692.69;5032358;28;20650;-81
2024/01/21 03:57:03;;;;;;;3.30;2.50;;;;;;;-0.57;50.12;101691.81;5029453;28;20221;-81
2024/01/21 03:59:29;;;;;;;5.80;2.60;;;;;;;-0.59;50.26;101683.09;5028646;28;20230;-81
2024/01/21 04:01:56;;;;;;;6.53;2.90;;;;;;;-0.56;49.82;101689.19;5030576;28;20212;-81
2024/01/21 04:04:22;;;;;;;3.63;2.37;;;;;;;-0.59;49.91;101685.69;5029576;28;20209;-81
2024/01/21 04:06:50;;;;;;;4.53;2.73;;;;;;;-0.63;50.10;101686.56;5030201;28;20229;-81
2024/01/21 04:09:22;;;;;;;5.03;2.63;;;;;;;-0.67;50.33;101682.22;5031619;28;20655;-81
2024/01/21 04:11:49;;;;;;;4.13;2.37;;;;;;;-0.69;50.41;101687.44;5031632;28;20248;-81
2024/01/21 04:14:16;;;;;;;3.87;2.53;;;;;;;-0.72;50.53;101680.47;5035023;28;20577;-81
2024/01/21 04:16:42;;;;;;;3.53;2.50;;;;;;;-0.71;50.32;101678.72;5031035;28;20280;-81
2024/01/21 04:19:09;;;;;;;3.67;2.80;;;;;;;-0.72;50.23;101666.53;5028513;28;20234;-81
2024/01/21 04:21:35;;;;;;;4.53;2.60;;;;;;;-0.72;50.48;101664.75;5033082;28;20577;-81
2024/01/21 04:24:04;;;;;;;3.50;2.70;;;;;;;-0.71;50.52;101650.81;5033993;28;20213;-81
2024/01/21 04:26:31;;;;;;;5.20;3.10;;;;;;;-0.70;50.45;101643.84;5029610;28;20604;-81
2024/01/21 04:28:58;;;;;;;3.97;2.83;;;;;;;-0.67;50.33;101646.44;5031289;28;20198;-81
2024/01/21 04:31:24;;;;;;;3.73;2.83;;;;;;;-0.66;49.83;101623.78;5028216;28;20226;-81
2024/01/21 04:33:50;;;;;;;4.83;2.67;;;;;;;-0.58;49.07;101622.91;5027131;28;20460;-81
2024/01/21 04:36:18;;;;;;;4.23;2.70;;;;;;;-0.58;49.59;101622.03;5031867;28;20316;-81
2024/01/21 04:38:45;;;;;;;4.77;2.80;;;;;;;-0.47;48.61;101612.41;5034731;28;20266;-81
2024/01/21 04:41:14;;;;;;;5.50;2.60;;;;;;;-0.50;48.10;101597.56;5034304;28;20227;-81
2024/01/21 04:43:41;;;;;;;3.97;2.60;;;;;;;-0.48;47.81;101595.84;5031275;28;20225;-82
2024/01/21 04:46:07;;;;;;;3.53;2.50;;;;;;;-0.43;46.80;101603.69;5029348;28;20253;-81
2024/01/21 04:48:34;;;;;;;3.50;2.47;;;;;;;-0.37;46.32;101591.44;5027420;28;20667;-82
2024/01/21 04:51:01;;;;;;;3.87;2.17;;;;;;;-0.22;45.46;101581.78;5036628;28;20698;-81
2024/01/21 04:53:28;;;;;;;3.20;2.23;;;;;;;-0.12;45.31;101589.59;5030174;28;20210;-81
2024/01/21 04:55:54;;;;;;;4.13;2.67;;;;;;;0.02;45.00;101588.63;5040230;28;20298;-82
2024/01/21 04:58:22;;;;;;;4.93;3.17;;;;;;;0.08;44.76;101596.47;5033469;28;20209;-80
2024/01/21 05:00:49;;;;;;;4.60;2.80;;;;;;;0.12;44.75;101583.34;5036076;28;20232;-81
2024/01/21 05:03:15;;;;;;;5.27;3.20;;;;;;;0.13;44.77;101576.38;5035923;28;20202;-81
2024/01/21 05:05:41;;;;;;;4.23;2.37;;;;;;;0.17;44.56;101567.63;5037696;28;20218;-81
2024/01/21 05:08:08;;;;;;;4.97;3.77;;;;;;;0.13;44.74;101566.78;5026152;28;20206;-81
2024/01/21 05:10:36;;;;;;;5.00;2.80;;;;;;;0.15;44.44;101565.00;5030335;28;20223;-81
2024/01/21 05:13:02;;;;;;;3.83;2.50;;;;;;;0.14;44.11;101565.88;5029345;28;20210;-81
2024/01/21 05:15:30;;;;;;;6.13;3.40;;;;;;;0.17;44.56;101559.75;5033491;28;20206;-81
2024/01/21 05:17:57;;;;;;;5.80;2.93;;;;;;;0.22;44.30;101553.59;5033701;28;20205;-81
2024/01/21 05:20:23;;;;;;;4.03;2.87;;;;;;;0.22;44.55;101560.59;5034467;28;21010;-81
2024/01/21 05:22:50;;;;;;;5.00;3.00;;;;;;;0.25;44.22;101542.22;5030734;28;20207;-81
2024/01/21 05:25:17;;;;;;;3.33;2.00;;;;;;;0.31;43.47;101548.31;5028924;28;20638;-81
2024/01/21 05:27:44;;;;;;;5.53;3.00;;;;;;;0.32;43.74;101544.81;5027412;28;20229;-81
2024/01/21 05:30:12;;;;;;;3.93;2.60;;;;;;;0.33;43.69;101537.81;5030597;28;20226;-81
2024/01/21 05:32:41;;;;;;;4.53;2.43;;;;;;;0.33;43.83;101532.59;5029197;28;20257;-81
2024/01/21 05:35:08;;;;;;;4.80;3.00;;;;;;;0.35;43.54;101525.59;5030668;28;20293;-81
2024/01/21 05:37:35;;;;;;;4.90;2.63;;;;;;;0.41;43.39;101520.28;5029073;28;20289;-81
2024/01/21 05:40:02;;;;;;;5.00;3.03;;;;;;;0.40;42.78;101513.28;5030271;28;20221;-81
2024/01/21 05:42:28;;;;;;;5.47;3.33;;;;;;;0.41;42.98;101508.91;5032174;28;20246;-81
2024/01/21 05:44:55;;;;;;;4.13;2.40;;;;;;;0.48;42.91;101500.13;5030652;28;20202;-81
2024/01/21 05:47:21;;;;;;;6.43;2.87;;;;;;;0.49;42.40;101505.38;5027843;28;20230;-81
2024/01/21 05:49:49;;;;;;;3.17;2.13;;;;;;;0.54;42.65;101489.59;5028026;28;20305;-81
2024/01/21 05:52:16;;;;;;;3.90;2.40;;;;;;;0.55;42.02;101486.06;5037751;28;20213;-80
2024/01/21 05:54:42;;;;;;;4.40;2.50;;;;;;;0.63;41.55;101490.38;5029655;28;20655;-80
2024/01/21 05:57:09;;;;;;;2.80;1.83;;;;;;;0.67;42.30;101497.34;5027479;28;20202;-81
2024/01/21 05:59:36;;;;;;;4.10;2.77;;;;;;;0.70;41.63;101491.22;5029819;28;20287;-81
2024/01/21 06:02:02;;;;;;;4.87;2.97;;;;;;;0.79;41.80;101498.09;5042924;28;20216;-81
2024/01/21 06:04:29;;;;;;;4.07;2.43;;;;;;;0.79;41.55;101485.84;5035744;28;20393;-81
2024/01/21 06:06:59;;;;;;;3.97;2.83;;;;;;;0.82;41.17;101490.22;5027383;28;20237;-81
2024/01/21 06:09:25;;;;;;;3.90;2.27;;;;;;;0.84;41.37;101483.19;5032966;28;20712;-81
2024/01/21 06:11:51;;;;;;;4.60;2.60;;;;;;;0.86;41.55;101481.44;5037498;28;20213;-81
2024/01/21 06:14:18;;;;;;;4.77;2.50;;;;;;;0.90;41.71;101477.88;5033535;28;20203;-81
2024/01/21 06:16:44;;;;;;;3.73;2.60;;;;;;;0.92;41.47;101483.97;5036062;28;20214;-81
2024/01/21 06:19:11;;;;;;;4.47;2.00;;;;;;;0.92;41.91;101478.72;5034874;28;20210;-80
2024/01/21 06:21:42;;;;;;;4.73;2.90;;;;;;;0.91;41.89;101487.47;5035445;28;20221;-81
2024/01/21 06:24:09;;;;;;;3.73;2.70;;;;;;;0.91;42.20;101477.00;5035042;28;20202;-81
2024/01/21 06:26:37;;;;;;;4.73;2.80;;;;;;;0.93;41.71;101468.22;5032825;28;21031;-81
2024/01/21 06:29:04;;;;;;;4.07;2.80;;;;;;;0.93;41.69;101465.59;5035642;28;20216;-81
2024/01/21 06:31:30;;;;;;;3.90;2.50;;;;;;;0.95;42.29;101466.44;5036878;28;20222;-80
2024/01/21 06:33:57;;;;;;;3.83;2.30;;;;;;;0.95;41.56;101460.34;5030213;28;20224;-80
2024/01/21 06:36:24;;;;;;;4.27;2.60;;;;;;;0.98;41.94;101458.56;5031691;28;20233;-80
2024/01/21 06:38:50;;;;;;;4.70;2.60;;;;;;;0.97;41.28;101453.31;5026282;28;20218;-80
2024/01/21 06:41:18;;;;;;;3.90;3.13;;;;;;;0.95;41.40;101449.84;5036146;28;20725;-81
2024/01/21 06:43:45;;;;;;;3.93;2.77;;;;;;;0.97;41.42;101448.09;5030494;28;20213;-81
2024/01/21 06:46:11;;;;;;;4.33;3.00;;;;;;;0.97;41.36;101441.09;5027846;28;20210;-81
2024/01/21 06:48:38;;;;;;;4.97;3.10;;;;;;;1.00;41.06;101432.31;5034267;28;20206;-80
2024/01/21 06:51:10;;;;;;;4.43;2.50;;;;;;;0.99;41.51;101441.06;5035104;28;20233;-82
2024/01/21 06:53:36;;;;;;;4.07;2.57;;;;;;;1.01;41.41;101429.69;5038375;28;20218;-80
2024/01/21 06:56:07;;;;;;;4.47;2.83;;;;;;;1.02;41.18;101441.03;5035233;28;20561;-81
2024/01/21 06:58:34;;;;;;;3.90;2.90;;;;;;;1.01;41.01;101434.91;5027909;28;20237;-81
2024/01/21 07:01:01;;;;;;;4.43;3.07;;;;;;;1.00;41.47;101442.81;5033719;28;20230;-81
2024/01/21 07:03:28;;;;;;;3.73;2.20;;;;;;;1.07;41.51;101435.75;5035039;28;20212;-80
2024/01/21 07:05:55;;;;;;;5.83;2.97;;;;;;;1.04;41.49;101434.88;5033936;28;20198;-80
2024/01/21 07:08:21;;;;;;;4.10;2.87;;;;;;;1.06;41.30;101429.63;5030950;28;20225;-80
2024/01/21 07:10:48;;;;;;;4.57;2.83;;;;;;;1.01;41.02;101416.56;5026704;28;20626;-80
2024/01/21 07:13:14;;;;;;;5.00;2.80;;;;;;;1.03;41.47;101413.91;5027367;28;20563;-80
2024/01/21 07:15:42;;;;;;;3.83;2.13;;;;;;;1.01;41.37;101413.06;5028873;28;20737;-80
2024/01/21 07:18:09;;;;;;;4.00;3.00;;;;;;;1.00;42.12;101404.34;5026716;28;20201;-80
2024/01/21 07:20:35;;;;;;;4.33;2.77;;;;;;;1.00;41.71;101391.22;5032207;28;20230;-81
2024/01/21 07:23:02;;;;;;;4.43;2.20;;;;;;;0.99;41.39;101389.47;5030745;28;20292;-81
2024/01/21 07:25:28;;;;;;;4.03;2.87;;;;;;;0.96;41.61;101397.38;5028215;28;20214;-80
2024/01/21 07:27:55;;;;;;;4.83;2.60;;;;;;;0.95;41.69;101394.78;5027981;28;20230;-80
2024/01/21 07:30:21;;;;;;;4.37;2.67;;;;;;;0.94;41.96;101379.91;5029909;28;20218;-81
2024/01/21 07:32:49;;;;;;;2.73;2.07;;;;;;;0.92;41.67;101365.94;5028352;28;20206;-81
2024/01/21 07:35:15;;;;;;;3.53;2.37;;;;;;;0.92;41.43;101372.06;5032340;28;20556;-81
2024/01/21 07:37:42;;;;;;;3.93;1.97;;;;;;;0.94;41.46;101369.44;5032111;28;20205;-81
2024/01/21 07:40:09;;;;;;;3.57;2.30;;;;;;;0.93;41.88;101357.19;5030649;28;20237;-80
2024/01/21 07:42:36;;;;;;;2.77;1.93;;;;;;;0.91;41.81;101353.72;5033515;28;20206;-80
2024/01/21 07:45:02;;;;;;;3.30;2.60;;;;;;;0.92;41.32;101345.84;5031270;28;20210;-80
2024/01/21 07:47:28;;;;;;;5.47;2.70;;;;;;;0.92;41.78;101350.22;5029581;28;20222;-80
2024/01/21 07:49:56;;;;;;;3.43;2.53;;;;;;;0.90;41.94;101331.88;5027245;28;20600;-81
2024/01/21 07:52:23;;;;;;;4.30;2.30;;;;;;;0.94;41.72;101337.97;5025713;28;20238;-80
2024/01/21 07:54:49;;;;;;;5.80;2.60;;;;;;;0.94;41.92;101338.81;5031205;28;20205;-80
2024/01/21 07:57:16;;;;;;;4.07;2.60;;;;;;;0.93;42.26;101337.09;5027601;28;20210;-80
2024/01/21 07:59:42;;;;;;;2.93;1.97;;;;;;;0.96;41.62;101330.94;5032277;28;20226;-80
2024/01/21 08:02:09;;;;;;;3.40;2.47;;;;;;;0.96;41.07;101331.81;5032911;28;20207;-81
2024/01/21 08:04:36;;;;;;;8.00;2.07;;;;;;;0.98;41.94;101334.41;5031470;28;20205;-80
2024/01/21 08:07:04;;;;;;;3.80;1.83;;;;;;;1.04;41.15;101334.34;5027365;28;20226;-80
2024/01/21 08:09:30;;;;;;;2.33;1.50;;;;;;;1.06;41.52;101329.94;5020456;28;20722;-81
2024/01/21 08:11:57;;;;;;;3.93;2.17;;;;;;;1.09;41.11;101337.75;5033209;28;20658;-81
2024/01/21 08:14:23;;;;;;;3.07;2.30;;;;;;;1.09;41.62;101335.13;5033146;28;20211;-81
2024/01/21 08:16:50;;;;;;;3.67;2.40;;;;;;;1.10;41.67;101351.72;5027225;28;20216;-81
2024/01/21 08:19:17;;;;;;;4.13;2.60;;;;;;;1.09;41.69;101344.75;5028855;28;20206;-81
2024/01/21 08:21:43;;;;;;;7.13;3.30;;;;;;;1.06;41.73;101361.44;5032175;28;20210;-81
2024/01/21 08:24:11;;;;;;;6.33;3.63;;;;;;;1.10;41.58;101343.88;5031066;28;20742;-81
2024/01/21 08:26:38;;;;;;;3.23;2.07;;;;;;;1.11;41.26;101372.69;5036733;28;20210;-81
2024/01/21 08:29:05;;;;;;;5.33;3.20;;;;;;;1.15;41.68;101357.81;5029036;28;20261;-81
2024/01/21 08:31:31;;;;;;;5.57;3.60;;;;;;;1.12;41.48;101369.19;5028968;28;20229;-81
2024/01/21 08:33:58;;;;;;;5.27;2.53;;;;;;;1.21;41.60;101376.97;5030196;28;20215;-81
2024/01/21 08:36:24;;;;;;;3.60;2.70;;;;;;;1.23;41.17;101350.69;5030756;28;20210;-81
2024/01/21 08:38:51;;;;;;;4.90;2.90;;;;;;;1.23;41.48;101346.31;5029297;28;20205;-82
2024/01/21 08:41:19;;;;;;;2.63;2.20;;;;;;;1.33;41.53;101326.06;5030100;28;20676;-81
2024/01/21 08:43:45;;;;;;;16.93;8.33;;;;;;;1.35;41.66;101317.28;5034940;28;20564;-81
2024/01/21 08:46:12;;;;;;;8.50;4.50;;;;;;;1.39;41.44;101295.34;5030577;28;20639;-81
2024/01/21 08:48:38;;;;;;;4.43;3.23;;;;;;;1.45;41.03;101288.25;5033354;28;20237;-81
2024/01/21 08:51:05;;;;;;;5.30;2.77;;;;;;;1.48;41.11;101317.06;5029654;28;20230;-81
2024/01/21 08:53:31;;;;;;;3.13;2.20;;;;;;;1.48;41.10;101325.81;5034782;28;20202;-81
2024/01/21 08:55:58;;;;;;;3.60;1.97;;;;;;;1.48;40.90;101340.69;5034189;28;20202;-81
2024/01/21 08:58:26;;;;;;;3.97;2.37;;;;;;;1.51;40.58;101348.53;5031891;28;20198;-81
2024/01/21 09:00:52;;;;;;;6.20;3.17;;;;;;;1.54;40.66;101324.88;5029108;28;20222;-81
2024/01/21 09:03:19;;;;;;;5.17;2.50;;;;;;;1.53;40.67;101318.75;5029430;28;20202;-81
2024/01/21 09:05:45;;;;;;;5.33;3.10;;;;;;;1.55;41.44;101310.84;5030462;28;20197;-81
2024/01/21 09:08:11;;;;;;;5.80;3.03;;;;;;;1.55;41.49;101305.59;5028474;28;20229;-81
2024/01/21 09:10:38;;;;;;;4.13;2.80;;;;;;;1.59;41.19;101308.16;5030871;28;20233;-81
2024/01/21 09:13:05;;;;;;;4.23;2.03;;;;;;;1.64;41.12;101302.81;5033711;28;20214;-80
2024/01/21 09:15:33;;;;;;;3.77;2.60;;;;;;;1.66;41.01;101332.53;5030160;28;20855;-81
2024/01/21 09:17:59;;;;;;;4.70;2.53;;;;;;;1.65;41.20;101349.19;5032976;28;20686;-81
2024/01/21 09:20:26;;;;;;;3.67;2.30;;;;;;;1.71;41.08;101360.47;5037178;28;20261;-82
2024/01/21 09:22:52;;;;;;;3.97;2.27;;;;;;;1.75;41.42;101363.91;5030059;28;20198;-82
2024/01/21 09:25:19;;;;;;;3.27;1.90;;;;;;;1.82;41.17;101381.28;5032109;28;20203;-82
2024/01/21 09:27:45;;;;;;;2.73;2.23;;;;;;;1.84;41.28;101387.41;5034708;28;20218;-81
2024/01/21 09:30:13;;;;;;;2.93;2.13;;;;;;;1.87;41.28;101386.47;5034177;28;20225;-82
2024/01/21 09:32:40;;;;;;;4.27;2.40;;;;;;;1.91;41.53;101393.44;5037226;28;20213;-82
2024/01/21 09:35:07;;;;;;;4.63;2.60;;;;;;;1.88;41.70;101391.72;5029720;28;20213;-82
2024/01/21 09:37:34;;;;;;;3.90;2.37;;;;;;;1.91;42.44;101401.31;5035811;28;20221;-81
2024/01/21 09:40:00;;;;;;;4.83;1.67;;;;;;;1.93;41.92;101389.91;5030902;28;20308;-81
2024/01/21 09:42:27;;;;;;;4.00;2.70;;;;;;;1.95;42.43;101389.88;5032253;28;20206;-81
2024/01/21 09:44:53;;;;;;;3.20;2.00;;;;;;;1.98;42.61;101367.03;5029946;28;20292;-82
2024/01/21 09:47:20;;;;;;;4.17;2.07;;;;;;;1.97;41.93;101360.03;5026274;28;20209;-81
2024/01/21 09:49:49;;;;;;;3.57;2.23;;;;;;;1.94;42.81;101331.22;5029457;28;20273;-82
2024/01/21 09:52:18;;;;;;;4.00;2.60;;;;;;;1.95;42.71;101326.81;5029598;28;20210;-81
2024/01/21 09:54:46;;;;;;;4.03;2.60;;;;;;;1.97;43.09;101323.25;5026225;28;20237;-81
2024/01/21 09:57:13;;;;;;;4.70;2.47;;;;;;;1.97;43.11;101311.91;5032909;28;20255;-80
2024/01/21 09:59:41;;;;;;;4.03;2.30;;;;;;;1.98;42.72;101317.09;5036933;28;20218;-82
2024/01/21 10:02:15;;;;;;;4.43;2.93;;;;;;;1.98;42.95;101310.97;5024040;28;20694;-81
2024/01/21 10:04:42;;;;;;;3.90;1.70;;;;;;;2.02;42.79;101313.53;5026254;28;20202;-81
2024/01/21 10:07:11;;;;;;;4.37;3.27;;;;;;;2.05;42.60;101323.13;5031360;28;20214;-81
2024/01/21 10:09:37;;;;;;;4.07;2.83;;;;;;;2.11;42.70;101315.16;5031179;28;20234;-81
2024/01/21 10:12:06;;;;;;;2.50;2.13;;;;;;;2.19;42.98;101318.50;5029511;28;20206;-81
2024/01/21 10:14:33;;;;;;;3.30;2.33;;;;;;;2.24;42.16;101315.78;5033417;28;20683;-82
2024/01/21 10:17:00;;;;;;;4.47;3.10;;;;;;;2.27;42.54;101327.09;5031252;28;20210;-81
2024/01/21 10:19:28;;;;;;;4.17;3.00;;;;;;;2.28;42.56;101309.59;5032558;28;20195;-82
2024/01/21 10:22:08;;;;;;;3.63;2.50;;;;;;;2.27;43.17;101313.97;5034194;28;20280;-81
2024/01/21 10:24:38;;;;;;;4.33;3.00;;;;;;;2.31;42.56;101330.56;5035905;28;20206;-82
2024/01/21 10:27:06;;;;;;;3.07;2.40;;;;;;;2.35;42.45;101340.09;5033695;28;20582;-81
2024/01/21 10:29:33;;;;;;;5.67;2.90;;;;;;;2.38;43.58;101353.19;5029619;28;20242;-81
2024/01/21 10:32:00;;;;;;;3.70;2.57;;;;;;;2.37;43.57;101341.81;5027133;28;20574;-82
2024/01/21 10:34:27;;;;;;;3.30;2.37;;;;;;;2.38;43.26;101327.75;5036358;28;20209;-82
2024/01/21 10:36:58;;;;;;;2.83;2.20;;;;;;;2.40;44.10;101340.88;5033718;28;20686;-83
2024/01/21 10:39:25;;;;;;;4.23;3.10;;;;;;;2.37;43.93;101343.56;5031392;28;20195;-81
2024/01/21 10:41:54;;;;;;;4.63;3.10;;;;;;;2.36;44.08;101307.66;5026888;28;20590;-82
2024/01/21 10:44:21;;;;;;;4.47;2.70;;;;;;;2.32;44.07;101327.03;5034318;28;20210;-82
2024/01/21 10:46:49;;;;;;;3.10;2.60;;;;;;;2.32;43.54;101343.66;5035876;28;20201;-82
2024/01/21 10:49:16;;;;;;;4.90;2.80;;;;;;;2.33;44.49;101349.81;5030965;28;20272;-81
2024/01/21 10:51:43;;;;;;;5.53;2.90;;;;;;;2.33;44.19;101334.03;5034001;28;20217;-82
2024/01/21 10:54:10;;;;;;;5.57;2.80;;;;;;;2.37;44.43;101312.03;5043365;28;20241;-82
2024/01/21 10:56:38;;;;;;;5.97;3.27;;;;;;;2.35;44.46;101311.19;5036236;28;20209;-81
2024/01/21 10:59:06;;;;;;;3.23;2.70;;;;;;;2.42;44.74;101297.03;5036829;28;20576;-82
2024/01/21 11:01:34;;;;;;;3.60;2.80;;;;;;;2.48;43.71;101291.66;5033583;28;20229;-82
2024/01/21 11:04:07;;;;;;;3.70;2.50;;;;;;;2.47;44.18;101308.34;5037532;28;20221;-81
2024/01/21 11:06:33;;;;;;;4.17;2.80;;;;;;;2.48;43.83;101304.81;5036322;28;20222;-82
2024/01/21 11:09:01;;;;;;;3.73;3.07;;;;;;;2.49;43.94;101275.00;5036086;28;20230;-81
2024/01/21 11:11:28;;;;;;;3.50;2.63;;;;;;;2.56;45.04;101276.59;5035195;28;20295;-82
2024/01/21 11:13:54;;;;;;;3.50;2.80;;;;;;;2.62;43.88;101247.53;5032665;28;20209;-81
2024/01/21 11:16:38;;;;;;;4.93;3.37;;;;;;;2.64;44.88;101265.91;5040023;28;20251;-80
2024/01/21 11:19:06;;;;;;;6.20;3.37;;;;;;;2.65;44.50;101278.19;5029953;28;20719;-81
2024/01/21 11:21:34;;;;;;;5.07;3.43;;;;;;;2.62;44.61;101273.84;5033107;28;20222;-80
2024/01/21 11:24:03;;;;;;;4.03;3.03;;;;;;;2.67;44.19;101290.41;5039273;28;20202;-81
2024/01/21 11:26:30;;;;;;;4.73;3.50;;;;;;;2.68;44.68;101292.13;5038346;28;20211;-80
2024/01/21 11:28:58;;;;;;;4.77;3.37;;;;;;;2.71;44.73;101286.78;5029973;28;20295;-81